createdAt,value
2023-08-07T00:01:47.045Z,0.40
2023-08-07T00:04:13.610Z,0.30
2023-08-07T00:06:40.128Z,0.50
2023-08-07T00:09:06.684Z,0.70
2023-08-07T00:11:33.207Z,0.85
2023-08-07T00:14:00.344Z,1.00
2023-08-07T00:16:26.903Z,0.50
2023-08-07T00:18:57.080Z,0.95
2023-08-07T00:21:24.515Z,0.57
2023-08-07T00:23:51.463Z,0.80
2023-08-07T00:26:18.005Z,0.70
2023-08-07T00:28:44.851Z,0.60
2023-08-07T00:31:11.887Z,0.73
2023-08-07T00:33:38.549Z,0.70
2023-08-07T00:36:05.681Z,0.75
2023-08-07T00:38:32.317Z,1.10
2023-08-07T00:41:00.891Z,0.63
2023-08-07T00:43:27.568Z,0.98
2023-08-07T00:45:54.690Z,1.20
2023-08-07T00:48:21.943Z,0.60
2023-08-07T00:50:49.514Z,0.60
2023-08-07T00:53:16.447Z,0.90
2023-08-07T00:55:43.570Z,0.50
2023-08-07T00:58:10.323Z,0.70
2023-08-07T01:00:37.136Z,0.90
2023-08-07T01:03:10.148Z,1.15
2023-08-07T01:05:36.962Z,0.63
2023-08-07T01:08:05.012Z,0.60
2023-08-07T01:10:40.617Z,0.73
2023-08-07T01:13:17.573Z,0.90
2023-08-07T01:15:44.715Z,1.00
2023-08-07T01:18:12.386Z,1.10
2023-08-07T01:20:38.947Z,1.10
2023-08-07T01:23:05.542Z,1.05
2023-08-07T01:25:32.169Z,1.08
2023-08-07T01:28:18.922Z,1.30
2023-08-07T01:30:51.573Z,1.07
2023-08-07T01:33:26.209Z,0.70
2023-08-07T01:35:56.233Z,0.98
2023-08-07T01:38:26.852Z,1.23
2023-08-07T01:40:53.845Z,0.85
2023-08-07T01:43:20.969Z,1.43
2023-08-07T01:45:47.446Z,1.40
2023-08-07T01:48:14.059Z,0.80
2023-08-07T01:50:40.782Z,1.40
2023-08-07T01:53:07.415Z,0.85
2023-08-07T01:55:33.960Z,0.90
2023-08-07T01:58:00.476Z,1.27
2023-08-07T02:00:27.152Z,0.93
2023-08-07T02:02:54.119Z,1.60
2023-08-07T02:05:20.868Z,0.85
2023-08-07T02:07:47.401Z,0.90
2023-08-07T02:10:13.961Z,0.93
2023-08-07T02:12:40.593Z,0.95
2023-08-07T02:15:07.802Z,0.73
2023-08-07T02:17:34.391Z,0.93
2023-08-07T02:20:01.025Z,0.80
2023-08-07T02:22:27.623Z,0.70
2023-08-07T02:24:54.218Z,1.00
2023-08-07T02:27:20.728Z,1.00
2023-08-07T02:29:47.354Z,1.38
2023-08-07T02:32:14.025Z,0.90
2023-08-07T02:34:40.716Z,0.93
2023-08-07T02:37:07.203Z,1.40
2023-08-07T02:39:33.731Z,1.05
2023-08-07T02:42:00.311Z,0.93
2023-08-07T02:44:26.846Z,1.00
2023-08-07T02:46:53.684Z,0.98
2023-08-07T02:49:20.512Z,1.02
2023-08-07T02:51:47.139Z,0.88
2023-08-07T02:54:13.653Z,0.82
2023-08-07T02:56:40.208Z,1.10
2023-08-07T02:59:07.254Z,0.70
2023-08-07T03:01:34.198Z,0.93
2023-08-07T03:04:00.787Z,1.30
2023-08-07T03:06:27.428Z,0.98
2023-08-07T03:08:54.027Z,1.40
2023-08-07T03:11:20.526Z,0.73
2023-08-07T03:13:47.095Z,0.70
2023-08-07T03:16:13.737Z,0.80
2023-08-07T03:18:40.337Z,0.90
2023-08-07T03:21:06.845Z,0.80
2023-08-07T03:23:33.589Z,0.50
2023-08-07T03:28:38.646Z,0.75
2023-08-07T03:31:05.415Z,0.52
2023-08-07T03:33:32.013Z,0.60
2023-08-07T03:35:58.640Z,0.60
2023-08-07T03:38:25.197Z,0.52
2023-08-07T03:40:51.723Z,0.50
2023-08-07T03:43:18.241Z,0.50
2023-08-07T03:45:44.872Z,0.53
2023-08-07T03:48:11.434Z,0.70
2023-08-07T03:50:38.797Z,0.55
2023-08-07T03:53:08.222Z,0.55
2023-08-07T03:55:35.732Z,0.60
2023-08-07T03:58:02.416Z,0.80
2023-08-07T04:00:29.107Z,0.60
2023-08-07T04:02:55.764Z,0.93
2023-08-07T04:05:22.391Z,0.80
2023-08-07T04:07:48.996Z,0.73
2023-08-07T04:10:15.536Z,0.50
2023-08-07T04:12:42.100Z,0.60
2023-08-07T04:15:10.118Z,0.98
2023-08-07T04:17:37.262Z,0.80
2023-08-07T04:20:05.054Z,0.75
2023-08-07T04:22:31.828Z,0.70
2023-08-07T04:24:58.391Z,0.90
2023-08-07T04:27:24.941Z,0.70
2023-08-07T04:29:51.490Z,0.80
2023-08-07T04:32:18.075Z,0.88
2023-08-07T04:34:44.596Z,1.07
2023-08-07T04:37:11.098Z,0.85
2023-08-07T04:39:37.822Z,1.45
2023-08-07T04:42:04.807Z,1.00
2023-08-07T04:44:31.320Z,0.80
2023-08-07T04:46:58.030Z,0.90
2023-08-07T04:49:24.896Z,1.10
2023-08-07T04:51:51.457Z,0.90
2023-08-07T04:54:18.216Z,0.95
2023-08-07T04:56:45.570Z,1.08
2023-08-07T04:59:12.551Z,1.00
2023-08-07T05:01:39.535Z,1.00
2023-08-07T05:04:06.503Z,1.65
2023-08-07T05:06:33.334Z,0.98
2023-08-07T05:08:59.973Z,1.05
2023-08-07T05:11:26.577Z,0.70
2023-08-07T05:13:53.174Z,0.90
2023-08-07T05:16:20.296Z,0.90
2023-08-07T05:18:49.225Z,1.23
2023-08-07T05:21:17.312Z,0.73
2023-08-07T05:23:43.861Z,0.93
2023-08-07T05:26:10.694Z,0.88
2023-08-07T05:28:37.239Z,1.65
2023-08-07T05:31:03.878Z,0.70
2023-08-07T05:33:30.417Z,0.93
2023-08-07T05:35:57.071Z,0.80
2023-08-07T05:38:24.434Z,0.50
2023-08-07T05:40:51.037Z,0.82
2023-08-07T05:43:18.375Z,0.90
2023-08-07T05:45:47.319Z,1.20
2023-08-07T05:48:14.006Z,1.00
2023-08-07T05:50:40.569Z,0.80
2023-08-07T05:53:07.155Z,0.98
2023-08-07T05:55:33.913Z,0.70
2023-08-07T05:58:00.599Z,0.88
2023-08-07T06:00:27.101Z,0.80
2023-08-07T06:02:53.637Z,0.77
2023-08-07T06:05:20.245Z,1.10
2023-08-07T06:07:47.050Z,1.08
2023-08-07T06:10:13.666Z,1.05
2023-08-07T06:12:40.443Z,1.10
2023-08-07T06:15:07.444Z,1.30
2023-08-07T06:17:34.047Z,1.38
2023-08-07T06:20:00.637Z,1.15
2023-08-07T06:22:27.132Z,1.20
2023-08-07T06:24:53.667Z,1.50
2023-08-07T06:27:22.462Z,1.00
2023-08-07T06:29:49.045Z,1.13
2023-08-07T06:32:15.724Z,1.13
2023-08-07T06:34:42.478Z,1.30
2023-08-07T06:37:09.373Z,0.90
2023-08-07T06:39:35.933Z,1.20
2023-08-07T06:42:02.947Z,1.45
2023-08-07T06:44:29.524Z,1.17
2023-08-07T06:46:56.020Z,1.17
2023-08-07T06:49:22.633Z,1.20
2023-08-07T06:51:49.172Z,1.33
2023-08-07T06:54:15.704Z,1.20
2023-08-07T06:56:43.407Z,1.30
2023-08-07T06:59:09.976Z,1.50
2023-08-07T07:01:37.754Z,1.90
2023-08-07T07:06:52.774Z,1.90
2023-08-07T07:09:19.306Z,1.15
2023-08-07T07:11:45.882Z,1.15
2023-08-07T07:14:12.467Z,1.70
2023-08-07T07:16:39.159Z,1.20
2023-08-07T07:19:09.480Z,1.13
2023-08-07T07:21:36.232Z,1.30
2023-08-07T07:24:04.029Z,1.30
2023-08-07T07:26:30.625Z,1.50
2023-08-07T07:28:57.642Z,1.10
2023-08-07T07:31:24.415Z,1.48
2023-08-07T07:33:50.961Z,1.40
2023-08-07T07:36:18.851Z,1.30
2023-08-07T07:38:47.659Z,1.67
2023-08-07T07:41:18.521Z,1.63
2023-08-07T07:43:45.128Z,1.30
2023-08-07T07:46:11.907Z,1.63
2023-08-07T07:48:38.475Z,1.77
2023-08-07T07:51:05.174Z,1.40
2023-08-07T07:53:32.355Z,1.25
2023-08-07T07:55:59.119Z,1.60
2023-08-07T07:58:25.782Z,1.85
2023-08-07T08:00:55.670Z,1.92
2023-08-07T08:03:25.162Z,1.23
2023-08-07T08:05:52.910Z,2.20
2023-08-07T08:08:20.131Z,1.67
2023-08-07T08:10:48.949Z,1.58
2023-08-07T08:13:17.093Z,1.67
2023-08-07T08:15:44.740Z,1.20
2023-08-07T08:18:11.845Z,1.58
2023-08-07T08:20:39.410Z,2.15
2023-08-07T08:23:06.441Z,1.70
2023-08-07T08:25:36.350Z,1.13
2023-08-07T08:28:03.071Z,1.20
2023-08-07T08:30:29.908Z,1.20
2023-08-07T08:32:57.073Z,1.33
2023-08-07T08:35:23.683Z,1.30
2023-08-07T08:37:50.219Z,1.40
2023-08-07T08:40:18.577Z,1.53
2023-08-07T08:42:48.501Z,1.17
2023-08-07T08:45:15.841Z,0.90
2023-08-07T08:47:47.316Z,1.30
2023-08-07T08:50:15.840Z,1.20
2023-08-07T08:52:46.654Z,1.00
2023-08-07T08:55:14.365Z,1.05
2023-08-07T08:57:41.585Z,1.30
2023-08-07T09:00:28.493Z,0.82
2023-08-07T09:02:55.168Z,1.02
2023-08-07T09:05:22.354Z,1.03
2023-08-07T09:07:49.945Z,1.02
2023-08-07T09:10:17.304Z,1.52
2023-08-07T09:12:53.662Z,1.08
2023-08-07T09:15:21.080Z,1.35
2023-08-07T09:17:48.658Z,1.63
2023-08-07T09:20:15.909Z,1.40
2023-08-07T09:22:43.403Z,1.10
2023-08-07T09:25:10.991Z,1.30
2023-08-07T09:27:39.299Z,1.10
2023-08-07T09:30:10.892Z,1.27
2023-08-07T09:32:39.614Z,1.25
2023-08-07T09:35:07.774Z,1.65
2023-08-07T09:37:34.446Z,1.00
2023-08-07T09:40:02.718Z,1.02
2023-08-07T09:42:32.619Z,1.10
2023-08-07T09:45:01.360Z,0.90
2023-08-07T09:47:28.744Z,1.20
2023-08-07T09:49:56.345Z,1.00
2023-08-07T09:52:25.413Z,1.70
2023-08-07T09:54:51.948Z,1.10
2023-08-07T09:57:18.877Z,1.00
2023-08-07T09:59:50.702Z,1.38
2023-08-07T10:02:18.103Z,1.00
2023-08-07T10:04:45.389Z,1.05
2023-08-07T10:07:15.859Z,1.60
2023-08-07T10:09:43.572Z,1.10
2023-08-07T10:12:11.033Z,1.00
2023-08-07T10:14:37.548Z,1.38
2023-08-07T10:17:05.566Z,1.00
2023-08-07T10:19:32.231Z,1.27
2023-08-07T10:21:59.728Z,1.48
2023-08-07T10:24:27.437Z,1.08
2023-08-07T10:26:55.732Z,1.60
2023-08-07T10:29:25.347Z,1.27
2023-08-07T10:31:54.730Z,0.70
2023-08-07T10:34:23.526Z,1.17
2023-08-07T10:36:50.824Z,1.20
2023-08-07T10:39:17.573Z,0.82
2023-08-07T10:41:48.716Z,1.13
2023-08-07T10:44:23.046Z,0.90
2023-08-07T10:46:59.702Z,1.05
2023-08-07T10:49:42.426Z,1.50
2023-08-07T10:52:11.526Z,1.48
2023-08-07T10:54:50.930Z,1.15
2023-08-07T10:57:18.910Z,1.30
2023-08-07T10:59:58.047Z,0.77
2023-08-07T11:02:29.352Z,0.88
2023-08-07T11:04:56.466Z,0.90
2023-08-07T11:07:30.672Z,0.88
2023-08-07T11:09:58.414Z,1.23
2023-08-07T11:12:29.337Z,0.88
2023-08-07T11:15:00.248Z,1.40
2023-08-07T11:17:28.316Z,0.75
2023-08-07T11:19:56.332Z,0.95
2023-08-07T11:22:23.195Z,0.77
2023-08-07T11:24:52.240Z,0.80
2023-08-07T11:27:18.745Z,1.30
2023-08-07T11:29:51.471Z,0.73
2023-08-07T11:32:21.738Z,0.75
2023-08-07T11:34:50.849Z,1.03
2023-08-07T11:37:18.510Z,1.17
2023-08-07T11:39:45.726Z,1.08
2023-08-07T11:42:12.444Z,1.13
2023-08-07T11:44:38.969Z,0.95
2023-08-07T11:47:05.878Z,0.87
2023-08-07T11:49:33.251Z,1.00
2023-08-07T11:52:00.806Z,0.70
2023-08-07T11:54:27.366Z,1.08
2023-08-07T11:56:54.011Z,1.00
2023-08-07T11:59:20.766Z,0.80
2023-08-07T12:01:47.594Z,1.75
2023-08-07T12:04:14.406Z,1.10
2023-08-07T12:06:57.854Z,1.08
2023-08-07T12:09:27.060Z,0.80
2023-08-07T12:12:00.013Z,1.30
2023-08-07T12:14:31.705Z,0.93
2023-08-07T12:16:58.425Z,1.13
2023-08-07T12:19:25.236Z,1.00
2023-08-07T12:21:51.917Z,1.38
2023-08-07T12:24:18.736Z,0.70
2023-08-07T12:26:45.322Z,0.80
2023-08-07T12:29:11.823Z,0.70
2023-08-07T12:31:40.159Z,1.08
2023-08-07T12:36:36.328Z,0.77
2023-08-07T12:39:03.027Z,0.60
2023-08-07T12:44:00.486Z,0.75
2023-08-07T12:48:56.453Z,0.50
2023-08-07T12:51:22.997Z,0.60
2023-08-07T12:53:49.597Z,0.80
2023-08-07T12:56:16.396Z,0.70
2023-08-07T12:58:42.960Z,0.52
2023-08-07T13:01:10.811Z,0.60
2023-08-07T13:03:37.378Z,1.05
2023-08-07T13:06:07.059Z,0.88
2023-08-07T13:08:34.689Z,0.68
2023-08-07T13:11:01.954Z,0.70
2023-08-07T13:13:29.213Z,1.07
2023-08-07T13:15:55.968Z,0.80
2023-08-07T13:18:22.958Z,0.70
2023-08-07T13:20:49.740Z,0.70
2023-08-07T13:23:16.256Z,0.60
2023-08-07T13:25:42.790Z,0.73
2023-08-07T13:28:09.248Z,0.73
2023-08-07T13:30:37.693Z,0.50
2023-08-07T13:33:04.933Z,0.88
2023-08-07T13:35:32.277Z,0.60
2023-08-07T13:37:58.913Z,0.70
2023-08-07T13:40:25.566Z,0.80
2023-08-07T13:42:52.074Z,0.40
2023-08-07T13:45:18.752Z,0.60
2023-08-07T13:47:45.340Z,0.70
2023-08-07T13:50:14.125Z,0.53
2023-08-07T13:52:40.841Z,0.80
2023-08-07T13:55:09.997Z,0.50
2023-08-07T13:57:36.629Z,0.60
2023-08-07T14:00:04.016Z,0.50
2023-08-07T14:02:32.736Z,0.50
2023-08-07T14:04:59.370Z,0.65
2023-08-07T14:07:25.927Z,0.80
2023-08-07T14:09:52.523Z,0.60
2023-08-07T14:12:19.040Z,0.40
2023-08-07T14:14:45.549Z,0.73
2023-08-07T14:17:12.150Z,0.60
2023-08-07T14:19:38.673Z,0.60
2023-08-07T14:22:05.323Z,0.40
2023-08-07T14:24:32.085Z,0.52
2023-08-07T14:26:58.678Z,0.70
2023-08-07T14:29:25.310Z,0.40
2023-08-07T14:31:51.800Z,0.45
2023-08-07T14:34:18.553Z,0.50
2023-08-07T14:36:45.094Z,0.60
2023-08-07T14:39:11.844Z,0.63
2023-08-07T14:41:38.417Z,0.60
2023-08-07T14:44:05.082Z,0.73
2023-08-07T14:46:31.658Z,0.50
2023-08-07T14:48:58.178Z,0.65
2023-08-07T14:51:24.780Z,0.50
2023-08-07T14:53:51.346Z,0.43
2023-08-07T14:56:17.870Z,0.77
2023-08-07T14:58:44.418Z,0.80
2023-08-07T15:01:11.304Z,0.70
2023-08-07T15:03:37.870Z,0.63
2023-08-07T15:06:05.919Z,0.55
2023-08-07T15:08:33.122Z,0.70
2023-08-07T15:10:59.753Z,0.70
2023-08-07T15:13:26.264Z,0.63
2023-08-07T15:15:52.881Z,0.60
2023-08-07T15:18:19.648Z,0.73
2023-08-07T15:20:48.843Z,0.50
2023-08-07T15:23:15.375Z,0.75
2023-08-07T15:25:43.273Z,0.63
2023-08-07T15:28:09.820Z,0.70
2023-08-07T15:30:36.381Z,0.60
2023-08-07T15:33:03.159Z,0.98
2023-08-07T15:35:33.078Z,0.63
2023-08-07T15:38:01.531Z,0.93
2023-08-07T15:40:28.835Z,0.70
2023-08-07T15:42:55.450Z,0.60
2023-08-07T15:45:22.114Z,0.80
2023-08-07T15:47:48.841Z,0.93
2023-08-07T15:50:24.739Z,0.60
2023-08-07T15:52:53.329Z,0.90
2023-08-07T15:55:20.041Z,0.65
2023-08-07T15:57:48.608Z,0.82
2023-08-07T16:00:17.678Z,0.70
2023-08-07T16:02:44.907Z,0.80
2023-08-07T16:05:11.672Z,0.77
2023-08-07T16:07:38.428Z,0.57
2023-08-07T16:10:05.559Z,0.63
2023-08-07T16:12:32.149Z,0.50
2023-08-07T16:15:00.262Z,1.10
2023-08-07T16:17:27.302Z,0.50
2023-08-07T16:19:53.973Z,0.70
2023-08-07T16:22:20.719Z,0.60
2023-08-07T16:24:48.679Z,0.90
2023-08-07T16:27:15.516Z,0.90
2023-08-07T16:29:42.164Z,0.60
2023-08-07T16:32:10.132Z,0.90
2023-08-07T16:34:36.797Z,0.90
2023-08-07T16:37:07.989Z,0.93
2023-08-07T16:39:37.352Z,0.75
2023-08-07T16:42:05.453Z,0.57
2023-08-07T16:44:32.498Z,1.10
2023-08-07T16:46:59.696Z,1.02
2023-08-07T16:49:26.609Z,0.90
2023-08-07T16:51:55.940Z,0.90
2023-08-07T16:54:22.746Z,0.97
2023-08-07T16:56:49.389Z,0.70
2023-08-07T16:59:16.212Z,0.80
2023-08-07T17:01:44.139Z,0.63
2023-08-07T17:04:14.085Z,0.80
2023-08-07T17:06:40.818Z,0.60
2023-08-07T17:09:07.579Z,1.00
2023-08-07T17:11:36.892Z,0.82
2023-08-07T17:14:04.148Z,0.60
2023-08-07T17:16:32.864Z,0.70
2023-08-07T17:19:01.230Z,0.80
2023-08-07T17:21:27.856Z,0.80
2023-08-07T17:23:54.422Z,0.95
2023-08-07T17:26:21.050Z,0.65
2023-08-07T17:28:47.760Z,0.98
2023-08-07T17:31:14.356Z,0.90
2023-08-07T17:33:41.254Z,1.02
2023-08-07T17:36:07.912Z,0.70
2023-08-07T17:38:37.047Z,0.57
2023-08-07T17:41:04.709Z,1.02
2023-08-07T17:43:32.011Z,0.70
2023-08-07T17:45:58.691Z,0.82
2023-08-07T17:48:25.407Z,0.90
2023-08-07T17:50:54.567Z,0.93
2023-08-07T17:53:21.862Z,0.63
2023-08-07T17:55:48.548Z,0.80
2023-08-07T17:58:17.894Z,0.95
2023-08-07T18:00:44.547Z,0.80
2023-08-07T18:03:16.674Z,0.80
2023-08-07T18:05:43.354Z,0.90
2023-08-07T18:08:09.901Z,0.60
2023-08-07T18:10:36.475Z,0.40
2023-08-07T18:13:03.529Z,0.80
2023-08-07T18:15:30.275Z,0.40
2023-08-07T18:17:56.954Z,0.32
2023-08-07T18:20:23.636Z,0.50
2023-08-07T18:22:52.641Z,0.60
2023-08-07T18:25:19.296Z,0.40
2023-08-07T18:27:45.962Z,0.50
2023-08-07T18:30:13.026Z,0.40
2023-08-07T18:32:42.286Z,0.50
2023-08-07T18:35:09.565Z,0.32
2023-08-07T18:37:36.079Z,0.50
2023-08-07T18:40:03.096Z,0.40
2023-08-07T18:42:29.629Z,0.50
2023-08-07T18:44:56.213Z,0.40
2023-08-07T18:47:22.947Z,0.60
2023-08-07T18:49:49.572Z,0.82
2023-08-07T18:52:16.082Z,0.60
2023-08-07T18:54:42.638Z,0.60
2023-08-07T18:57:11.260Z,0.80
2023-08-07T18:59:37.905Z,0.45
2023-08-07T19:02:04.817Z,0.60
2023-08-07T19:04:33.173Z,0.60
2023-08-07T19:06:59.926Z,0.52
2023-08-07T19:09:26.941Z,0.50
2023-08-07T19:11:53.521Z,0.50
2023-08-07T19:14:20.246Z,0.68
2023-08-07T19:16:47.070Z,0.50
2023-08-07T19:19:15.672Z,0.60
2023-08-07T19:21:42.576Z,0.60
2023-08-07T19:24:09.982Z,0.55
2023-08-07T19:26:37.276Z,0.70
2023-08-07T19:29:05.465Z,0.50
2023-08-07T19:31:32.285Z,0.65
2023-08-07T19:33:58.983Z,0.67
2023-08-07T19:36:25.599Z,0.57
2023-08-07T19:38:52.256Z,0.75
2023-08-07T19:41:18.866Z,0.70
2023-08-07T19:43:47.766Z,0.82
2023-08-07T19:46:15.284Z,0.70
2023-08-07T19:48:41.977Z,0.70
2023-08-07T19:51:09.814Z,0.90
2023-08-07T19:53:42.986Z,0.70
2023-08-07T19:56:15.408Z,0.80
2023-08-07T19:58:42.021Z,1.00
2023-08-07T20:01:08.808Z,0.90
2023-08-07T20:03:35.479Z,1.00
2023-08-07T20:06:02.372Z,0.70
2023-08-07T20:08:29.159Z,0.77
2023-08-07T20:10:57.557Z,1.00
2023-08-07T20:13:24.282Z,0.93
2023-08-07T20:15:50.982Z,1.00
2023-08-07T20:18:17.581Z,1.20
2023-08-07T20:20:44.470Z,1.02
2023-08-07T20:25:51.808Z,1.10
2023-08-07T20:28:18.498Z,1.23
2023-08-07T20:30:45.130Z,1.20
2023-08-07T20:33:11.896Z,1.08
2023-08-07T20:35:38.652Z,0.97
2023-08-07T20:38:05.206Z,1.05
2023-08-07T20:40:32.341Z,1.13
2023-08-07T20:43:01.842Z,1.02
2023-08-07T20:45:28.494Z,0.95
2023-08-07T20:47:55.280Z,1.00
2023-08-07T20:50:22.261Z,1.10
2023-08-07T20:52:48.794Z,0.90
2023-08-07T20:55:15.348Z,1.05
2023-08-07T20:57:41.877Z,1.30
2023-08-07T21:00:09.907Z,1.00
2023-08-07T21:02:36.529Z,1.13
2023-08-07T21:05:03.276Z,1.10
2023-08-07T21:07:29.964Z,1.27
2023-08-07T21:10:00.887Z,1.20
2023-08-07T21:12:28.196Z,1.30
2023-08-07T21:14:54.817Z,1.20
2023-08-07T21:17:21.492Z,1.55
2023-08-07T21:19:49.253Z,1.60
2023-08-07T21:22:15.776Z,1.80
2023-08-07T21:24:42.369Z,1.57
2023-08-07T21:27:08.941Z,1.73
2023-08-07T21:29:35.552Z,1.80
2023-08-07T21:32:02.164Z,1.70
2023-08-07T21:34:28.662Z,1.50
2023-08-07T21:36:55.261Z,1.30
2023-08-07T21:39:22.120Z,1.42
2023-08-07T21:41:48.650Z,1.52
2023-08-07T21:44:15.202Z,1.40
2023-08-07T21:46:43.926Z,1.45
2023-08-07T21:49:11.417Z,1.87
2023-08-07T21:51:37.989Z,1.90
2023-08-07T21:54:04.546Z,1.60
2023-08-07T21:56:31.157Z,2.30
2023-08-07T21:58:57.683Z,1.92
2023-08-07T22:01:24.206Z,1.93
2023-08-07T22:03:50.927Z,1.80
2023-08-07T22:06:18.083Z,2.00
2023-08-07T22:08:44.649Z,1.80
2023-08-07T22:11:11.165Z,2.08
2023-08-07T22:13:38.232Z,2.13
2023-08-07T22:16:04.864Z,2.00
2023-08-07T22:18:31.414Z,1.80
2023-08-07T22:20:58.004Z,2.40
2023-08-07T22:23:24.821Z,2.53
2023-08-07T22:25:51.736Z,2.10
2023-08-07T22:28:19.680Z,2.00
2023-08-07T22:30:46.198Z,2.05
2023-08-07T22:33:12.947Z,2.10
2023-08-07T22:35:39.487Z,2.10
2023-08-07T22:38:06.048Z,1.90
2023-08-07T22:40:32.624Z,2.22
2023-08-07T22:42:59.146Z,2.25
2023-08-07T22:45:27.423Z,2.45
2023-08-07T22:47:53.976Z,1.80
2023-08-07T22:50:20.603Z,2.13
2023-08-07T22:52:47.267Z,2.00
2023-08-07T22:55:13.821Z,1.92
2023-08-07T22:57:40.335Z,1.98
2023-08-07T23:00:08.698Z,1.98
2023-08-07T23:02:35.265Z,2.00
2023-08-07T23:05:01.900Z,1.70
2023-08-07T23:07:28.433Z,1.77
2023-08-07T23:09:55.092Z,2.00
2023-08-07T23:12:22.286Z,1.70
2023-08-07T23:14:48.840Z,1.60
2023-08-07T23:17:18.769Z,1.80
2023-08-07T23:19:46.496Z,2.15
2023-08-07T23:22:13.618Z,1.63
2023-08-07T23:24:40.204Z,1.75
2023-08-07T23:27:08.058Z,1.53
2023-08-07T23:29:35.754Z,1.63
2023-08-07T23:32:02.374Z,1.95
2023-08-07T23:34:28.927Z,1.73
2023-08-07T23:36:55.467Z,1.63
2023-08-07T23:39:22.024Z,2.00
2023-08-07T23:41:48.555Z,1.27
2023-08-07T23:44:15.201Z,1.55
2023-08-07T23:46:41.777Z,1.90
2023-08-07T23:49:08.332Z,1.60
2023-08-07T23:51:34.871Z,1.60
2023-08-07T23:54:01.385Z,1.65
2023-08-07T23:56:27.969Z,1.30
2023-08-07T23:58:54.481Z,1.42
